Time,TemperatureF,DewpointF,PressureIn,WindDirection,WindDirectionDegrees,WindSpeedMPH,WindSpeedGustMPH,Humidity,HourlyPrecipIn,Conditions,Clouds,dailyrainin,SoftwareType,DateUTC
2013-05-09 00:03:00,32.6,30.3,30.11,South,169,0.0,0.0,91,0.00,,OVC,0.00,VWS V13.01,2013-05-09 06:03:00,
2013-05-09 00:11:00,32.7,30.4,30.12,SSE,168,0.0,0.0,91,0.00,,OVC,0.00,VWS V13.01,2013-05-09 06:11:00,
2013-05-09 00:16:00,32.9,30.6,30.12,South,169,0.0,0.0,91,0.01,,OVC,0.01,VWS V13.01,2013-05-09 06:16:00,
2013-05-09 00:21:00,33.0,30.7,30.12,SSE,162,0.0,0.0,91,0.01,,OVC,0.01,VWS V13.01,2013-05-09 06:21:00,
2013-05-09 00:26:00,33.2,30.9,30.12,SSE,161,0.0,0.0,91,0.01,,OVC,0.01,VWS V13.01,2013-05-09 06:26:00,
2013-05-09 00:31:00,33.2,30.9,30.12,SSE,161,0.0,0.0,91,0.01,,OVC,0.01,VWS V13.01,2013-05-09 06:31:00,
2013-05-09 00:37:00,33.4,31.1,30.12,SSE,162,0.0,0.0,91,0.01,,OVC,0.01,VWS V13.01,2013-05-09 06:37:00,
2013-05-09 00:42:00,33.4,31.1,30.13,SSE,161,0.0,0.0,91,0.01,,OVC,0.01,VWS V13.01,2013-05-09 06:42:00,
2013-05-09 00:47:00,33.3,31.0,30.13,SSE,161,0.0,0.0,91,0.01,,OVC,0.01,VWS V13.01,2013-05-09 06:47:00,
2013-05-09 00:52:00,33.3,31.0,30.13,SSE,162,0.0,0.0,91,0.01,,OVC,0.01,VWS V13.01,2013-05-09 06:52:00,
2013-05-09 00:57:00,33.2,30.9,30.13,SSE,161,0.0,0.0,91,0.01,,OVC,0.01,VWS V13.01,2013-05-09 06:57:00,
2013-05-09 01:03:00,33.1,30.8,30.13,SSE,162,0.0,0.0,91,0.01,,OVC,0.01,VWS V13.01,2013-05-09 07:03:00,
2013-05-09 01:08:00,33.0,30.7,30.13,SSE,161,0.0,0.0,91,0.01,,OVC,0.01,VWS V13.01,2013-05-09 07:08:00,
2013-05-09 01:13:00,33.0,30.7,30.13,SSE,162,0.0,0.0,91,0.01,,OVC,0.01,VWS V13.01,2013-05-09 07:13:00,
2013-05-09 01:18:00,33.0,30.7,30.12,SSE,161,0.0,0.0,91,0.00,,OVC,0.01,VWS V13.01,2013-05-09 07:18:00,
2013-05-09 01:23:00,33.0,30.7,30.12,SSE,162,0.0,0.0,91,0.00,,OVC,0.01,VWS V13.01,2013-05-09 07:23:00,
2013-05-09 01:29:00,32.9,30.6,30.12,SSE,162,0.0,0.0,91,0.00,,OVC,0.01,VWS V13.01,2013-05-09 07:29:00,
2013-05-09 01:34:00,33.0,30.7,30.12,SSE,161,0.0,0.0,91,0.00,,OVC,0.01,VWS V13.01,2013-05-09 07:34:00,
2013-05-09 01:39:00,33.1,30.8,30.12,SSE,161,0.0,0.0,91,0.00,,OVC,0.01,VWS V13.01,2013-05-09 07:39:00,
2013-05-09 01:44:00,33.2,30.9,30.12,SSE,162,0.0,0.0,91,0.00,,OVC,0.01,VWS V13.01,2013-05-09 07:44:00,
2013-05-09 01:49:00,33.2,30.9,30.12,SSE,161,0.0,0.0,91,0.00,,OVC,0.01,VWS V13.01,2013-05-09 07:49:00,
2013-05-09 01:54:00,33.3,31.0,30.12,SSE,161,0.0,0.0,91,0.00,,OVC,0.01,VWS V13.01,2013-05-09 07:54:00,
2013-05-09 01:59:00,33.3,31.0,30.12,SSE,161,0.0,0.0,91,0.00,,OVC,0.01,VWS V13.01,2013-05-09 07:59:00,
2013-05-09 02:05:00,33.4,31.1,30.12,SSE,161,0.0,0.0,91,0.00,,OVC,0.01,VWS V13.01,2013-05-09 08:05:00,
2013-05-09 02:10:00,33.4,31.1,30.12,SSE,153,0.0,0.0,91,0.00,,OVC,0.01,VWS V13.01,2013-05-09 08:10:00,
2013-05-09 04:11:00,33.8,31.5,30.11,ESE,113,0.0,0.0,91,0.01,,OVC,0.02,VWS V13.01,2013-05-09 10:11:00,
2013-05-09 04:25:00,33.9,31.6,30.11,NE,52,1.0,2.0,91,0.01,,OVC,0.02,VWS V13.01,2013-05-09 10:25:00,
2013-05-09 04:30:00,33.9,31.6,30.11,NE,53,0.0,0.0,91,0.01,,OVC,0.02,VWS V13.01,2013-05-09 10:30:00,
2013-05-09 04:35:00,33.9,31.6,30.11,NE,53,0.0,1.0,91,0.00,,OVC,0.02,VWS V13.01,2013-05-09 10:35:00,
2013-05-09 04:40:00,33.8,31.5,30.11,NE,53,3.0,5.0,91,0.00,,OVC,0.02,VWS V13.01,2013-05-09 10:40:00,
2013-05-09 04:45:00,33.8,31.5,30.12,NE,53,0.0,0.0,91,0.00,,OVC,0.02,VWS V13.01,2013-05-09 10:45:00,
2013-05-09 04:50:00,33.8,31.5,30.11,NE,53,1.0,2.0,91,0.00,,OVC,0.02,VWS V13.01,2013-05-09 10:50:00,
2013-05-09 04:56:00,33.8,31.5,30.12,NE,53,0.0,0.0,91,0.00,,OVC,0.02,VWS V13.01,2013-05-09 10:56:00,
2013-05-09 05:01:00,33.8,31.5,30.12,NE,53,0.0,0.0,91,0.00,,OVC,0.02,VWS V13.01,2013-05-09 11:01:00,
2013-05-09 05:06:00,33.7,31.4,30.12,East,79,5.0,5.0,91,0.00,,OVC,0.02,VWS V13.01,2013-05-09 11:06:00,
2013-05-09 05:11:00,33.7,31.4,30.12,ENE,58,0.0,0.0,91,0.00,,OVC,0.02,VWS V13.01,2013-05-09 11:11:00,
2013-05-09 05:16:00,33.7,31.4,30.12,ENE,58,0.0,0.0,91,0.00,,OVC,0.02,VWS V13.01,2013-05-09 11:16:00,
2013-05-09 05:21:00,33.6,31.3,30.12,ENE,57,0.0,0.0,91,0.00,,OVC,0.02,VWS V13.01,2013-05-09 11:21:00,
2013-05-09 05:26:00,33.6,31.3,30.12,ENE,58,0.0,3.0,91,0.00,,OVC,0.02,VWS V13.01,2013-05-09 11:26:00,
2013-05-09 05:31:00,33.6,31.3,30.12,ENE,58,0.0,0.0,91,0.00,,OVC,0.02,VWS V13.01,2013-05-09 11:31:00,
2013-05-09 05:36:00,33.5,31.2,30.13,East,83,2.0,2.0,91,0.00,,OVC,0.02,VWS V13.01,2013-05-09 11:36:00,
2013-05-09 05:42:00,33.5,31.2,30.12,East,83,0.0,0.0,91,0.00,,OVC,0.02,VWS V13.01,2013-05-09 11:42:00,
2013-05-09 05:47:00,33.5,31.2,30.12,East,83,0.0,0.0,91,0.00,,OVC,0.02,VWS V13.01,2013-05-09 11:47:00,
2013-05-09 05:52:00,33.5,31.2,30.13,NE,42,3.0,5.0,91,0.00,,OVC,0.02,VWS V13.01,2013-05-09 11:52:00,
2013-05-09 05:57:00,33.5,31.2,30.13,NE,41,1.0,2.0,91,0.00,,OVC,0.02,VWS V13.01,2013-05-09 11:57:00,
2013-05-09 06:02:00,33.5,31.2,30.13,NE,41,0.0,0.0,91,0.00,,OVC,0.02,VWS V13.01,2013-05-09 12:02:00,
2013-05-09 06:08:00,33.5,31.2,30.13,NE,41,0.0,0.0,91,0.00,,OVC,0.02,VWS V13.01,2013-05-09 12:08:00,
2013-05-09 06:22:00,33.3,31.0,30.13,NE,41,0.0,0.0,91,0.00,,OVC,0.02,VWS V13.01,2013-05-09 12:22:00,
2013-05-09 06:27:00,33.3,31.0,30.14,NE,41,0.0,0.0,91,0.00,,OVC,0.02,VWS V13.01,2013-05-09 12:27:00,
2013-05-09 06:33:00,33.4,31.1,30.13,NE,42,0.0,0.0,91,0.01,,OVC,0.03,VWS V13.01,2013-05-09 12:33:00,
2013-05-09 06:39:00,33.4,31.1,30.14,NE,42,0.0,0.0,91,0.01,,OVC,0.03,VWS V13.01,2013-05-09 12:39:00,
2013-05-09 06:44:00,33.4,31.1,30.14,ENE,71,0.0,1.0,91,0.01,,OVC,0.03,VWS V13.01,2013-05-09 12:44:00,
2013-05-09 06:50:00,33.4,31.1,30.14,ENE,71,0.0,0.0,91,0.01,,OVC,0.03,VWS V13.01,2013-05-09 12:50:00,
2013-05-09 06:55:00,33.4,31.1,30.14,ENE,71,0.0,0.0,91,0.01,,OVC,0.03,VWS V13.01,2013-05-09 12:55:00,
2013-05-09 07:00:00,33.4,31.1,30.15,ENE,71,0.0,0.0,91,0.01,,OVC,0.03,VWS V13.01,2013-05-09 13:00:00,
2013-05-09 07:05:00,33.3,31.0,30.15,ENE,71,0.0,0.0,91,0.01,,OVC,0.03,VWS V13.01,2013-05-09 13:05:00,
2013-05-09 07:10:00,33.4,31.1,30.15,ENE,71,0.0,0.0,91,0.01,,OVC,0.03,VWS V13.01,2013-05-09 13:10:00,
2013-05-09 07:16:00,33.4,31.1,30.16,ENE,71,0.0,0.0,91,0.01,,OVC,0.03,VWS V13.01,2013-05-09 13:16:00,
2013-05-09 07:21:00,33.5,31.2,30.16,ENE,71,0.0,0.0,91,0.01,,OVC,0.03,VWS V13.01,2013-05-09 13:21:00,
2013-05-09 07:26:00,33.7,31.4,30.16,ENE,69,0.0,1.0,91,0.01,,OVC,0.03,VWS V13.01,2013-05-09 13:26:00,
2013-05-09 07:31:00,33.8,31.5,30.16,ENE,71,0.0,3.0,91,0.00,,OVC,0.03,VWS V13.01,2013-05-09 13:31:00,
2013-05-09 07:38:00,33.9,31.6,30.16,ENE,71,1.0,2.0,91,0.00,,OVC,0.03,VWS V13.01,2013-05-09 13:38:00,
2013-05-09 07:43:00,34.1,31.8,30.16,ENE,70,2.0,4.0,91,0.00,,OVC,0.03,VWS V13.01,2013-05-09 13:43:00,
2013-05-09 07:48:00,34.2,31.9,30.16,ENE,71,1.0,1.0,91,0.00,,OVC,0.03,VWS V13.01,2013-05-09 13:48:00,
2013-05-09 07:54:00,34.4,32.0,30.16,East,91,0.0,0.0,91,0.01,,OVC,0.04,VWS V13.01,2013-05-09 13:54:00,
2013-05-09 07:59:00,34.4,32.0,30.17,East,79,3.0,7.0,91,0.01,,OVC,0.04,VWS V13.01,2013-05-09 13:59:00,
2013-05-09 08:04:00,34.4,31.8,30.17,NE,48,3.0,6.0,90,0.01,,OVC,0.04,VWS V13.01,2013-05-09 14:04:00,
2013-05-09 08:10:00,34.4,31.8,30.18,East,85,1.0,5.0,90,0.01,,OVC,0.04,VWS V13.01,2013-05-09 14:10:00,
2013-05-09 08:16:00,34.4,31.8,30.18,ENE,66,0.0,3.0,90,0.02,,OVC,0.05,VWS V13.01,2013-05-09 14:16:00,
2013-05-09 08:21:00,34.4,32.0,30.18,ENE,66,0.0,0.0,91,0.02,,OVC,0.05,VWS V13.01,2013-05-09 14:21:00,
2013-05-09 08:27:00,34.6,32.0,30.18,ENE,65,0.0,0.0,90,0.02,,OVC,0.05,VWS V13.01,2013-05-09 14:27:00,
2013-05-09 08:34:00,35.0,32.6,30.18,ENE,67,0.0,0.0,91,0.03,,OVC,0.06,VWS V13.01,2013-05-09 14:34:00,
2013-05-09 08:40:00,35.3,32.7,30.18,ENE,69,0.0,0.0,90,0.03,,OVC,0.06,VWS V13.01,2013-05-09 14:40:00,
2013-05-09 09:33:00,33.4,30.5,30.20,NNE,22,0.0,0.0,89,0.03,,OVC,0.09,VWS V13.01,2013-05-09 15:33:00,
2013-05-09 09:39:00,33.4,30.5,30.20,NNE,23,0.0,0.0,89,0.04,,OVC,0.10,VWS V13.01,2013-05-09 15:39:00,
2013-05-09 09:44:00,33.5,30.6,30.20,NNE,22,0.0,0.0,89,0.03,,OVC,0.10,VWS V13.01,2013-05-09 15:44:00,
2013-05-09 10:12:00,34.4,31.5,30.21,NNE,23,0.0,0.0,89,0.02,,OVC,0.11,VWS V13.01,2013-05-09 16:12:00,
2013-05-09 10:17:00,35.1,32.2,30.20,NNE,23,0.0,0.0,89,0.02,,OVC,0.11,VWS V13.01,2013-05-09 16:17:00,
2013-05-09 10:22:00,36.0,32.8,30.20,NNE,23,0.0,0.0,88,0.03,,OVC,0.12,VWS V13.01,2013-05-09 16:22:00,
2013-05-09 10:27:00,36.9,33.4,30.20,NNE,23,0.0,0.0,87,0.04,,OVC,0.13,VWS V13.01,2013-05-09 16:27:00,
2013-05-09 10:32:00,37.7,33.9,30.20,NNE,23,0.0,1.0,86,0.05,,OVC,0.14,VWS V13.01,2013-05-09 16:32:00,
2013-05-09 10:37:00,38.3,33.6,30.20,NNE,23,0.0,0.0,83,0.05,,OVC,0.15,VWS V13.01,2013-05-09 16:37:00,
2013-05-09 10:42:00,38.9,33.9,30.19,NNE,22,0.0,0.0,82,0.07,,OVC,0.17,VWS V13.01,2013-05-09 16:42:00,
2013-05-09 10:47:00,39.4,33.8,30.19,NNE,23,0.0,0.0,80,0.09,,OVC,0.20,VWS V13.01,2013-05-09 16:47:00,
2013-05-09 10:52:00,39.8,33.8,30.19,NNE,22,0.0,0.0,79,0.11,,OVC,0.21,VWS V13.01,2013-05-09 16:52:00,
2013-05-09 10:57:00,39.7,33.7,30.19,NNE,22,0.0,0.0,79,0.13,,OVC,0.23,VWS V13.01,2013-05-09 16:57:00,
2013-05-09 11:02:00,39.4,33.1,30.19,NNE,23,0.0,0.0,78,0.14,,OVC,0.24,VWS V13.01,2013-05-09 17:02:00,
2013-05-09 11:09:00,39.2,32.9,30.20,NNE,23,0.0,0.0,78,0.15,,OVC,0.26,VWS V13.01,2013-05-09 17:09:00,
2013-05-09 11:16:00,38.7,32.8,30.21,NNE,28,1.0,3.0,79,0.15,,OVC,0.27,VWS V13.01,2013-05-09 17:16:00,
2013-05-09 11:21:00,37.9,32.0,30.21,East,84,0.0,2.0,79,0.15,,OVC,0.27,VWS V13.01,2013-05-09 17:21:00,
2013-05-09 11:26:00,37.2,31.9,30.22,NNW,336,0.0,0.0,81,0.15,,OVC,0.27,VWS V13.01,2013-05-09 17:26:00,
2013-05-09 11:33:00,36.5,31.5,30.22,ENE,57,4.0,4.0,82,0.14,,OVC,0.28,VWS V13.01,2013-05-09 17:33:00,
2013-05-09 11:39:00,36.4,31.4,30.22,ENE,63,3.0,5.0,82,0.13,,OVC,0.28,VWS V13.01,2013-05-09 17:39:00,
2013-05-09 11:44:00,36.2,31.2,30.21,ENE,63,0.0,0.0,82,0.10,,OVC,0.28,VWS V13.01,2013-05-09 17:44:00,
2013-05-09 11:50:00,36.4,31.7,30.21,ENE,63,0.0,0.0,83,0.09,,OVC,0.29,VWS V13.01,2013-05-09 17:50:00,
2013-05-09 11:55:00,36.8,32.1,30.22,ENE,63,0.0,0.0,83,0.07,,OVC,0.29,VWS V13.01,2013-05-09 17:55:00,
2013-05-09 12:00:00,37.3,32.9,30.22,ENE,63,1.0,2.0,84,0.07,,OVC,0.30,VWS V13.01,2013-05-09 18:00:00,
2013-05-09 12:05:00,37.9,33.5,30.22,ENE,63,1.0,4.0,84,0.07,,OVC,0.31,VWS V13.01,2013-05-09 18:05:00,
2013-05-09 12:10:00,38.5,33.5,30.22,ENE,63,0.0,0.0,82,0.07,,OVC,0.32,VWS V13.01,2013-05-09 18:10:00,
2013-05-09 12:15:00,39.3,34.0,30.22,ENE,63,0.0,0.0,81,0.08,,OVC,0.34,VWS V13.01,2013-05-09 18:15:00,
2013-05-09 12:22:00,39.8,33.8,30.22,ENE,63,3.0,5.0,79,0.09,,OVC,0.36,VWS V13.01,2013-05-09 18:22:00,
2013-05-09 12:28:00,40.0,33.7,30.22,ENE,63,0.0,0.0,78,0.11,,OVC,0.38,VWS V13.01,2013-05-09 18:28:00,
2013-05-09 12:33:00,40.4,33.8,30.22,ENE,63,0.0,2.0,77,0.12,,OVC,0.40,VWS V13.01,2013-05-09 18:33:00,
2013-05-09 12:38:00,40.9,34.3,30.22,ENE,63,1.0,1.0,77,0.13,,OVC,0.41,VWS V13.01,2013-05-09 18:38:00,
2013-05-09 12:43:00,41.4,34.4,30.21,ENE,63,0.0,0.0,76,0.15,,OVC,0.43,VWS V13.01,2013-05-09 18:43:00,
2013-05-09 12:48:00,41.6,33.3,30.21,West,267,0.0,3.0,72,0.16,,OVC,0.45,VWS V13.01,2013-05-09 18:48:00,
2013-05-09 12:54:00,41.8,32.8,30.21,West,267,0.0,0.0,70,0.18,,OVC,0.47,VWS V13.01,2013-05-09 18:54:00,
2013-05-09 12:59:00,42.8,33.3,30.21,West,267,2.0,3.0,69,0.19,,OVC,0.49,VWS V13.01,2013-05-09 18:59:00,
2013-05-09 13:04:00,43.4,33.2,30.21,West,267,0.0,0.0,67,0.21,,OVC,0.51,VWS V13.01,2013-05-09 19:04:00,
2013-05-09 13:09:00,43.5,32.9,30.21,West,267,0.0,0.0,66,0.20,,OVC,0.52,VWS V13.01,2013-05-09 19:09:00,
2013-05-09 13:14:00,43.3,32.3,30.21,West,267,0.0,0.0,65,0.20,,OVC,0.53,VWS V13.01,2013-05-09 19:14:00,
2013-05-09 13:21:00,43.5,32.2,30.20,West,267,0.0,0.0,64,0.20,,OVC,0.55,VWS V13.01,2013-05-09 19:21:00,
2013-05-09 13:27:00,43.8,32.8,30.20,West,267,0.0,0.0,65,0.19,,OVC,0.56,VWS V13.01,2013-05-09 19:27:00,
2013-05-09 13:32:00,43.6,33.0,30.20,West,268,0.0,0.0,66,0.18,,OVC,0.57,VWS V13.01,2013-05-09 19:32:00,
2013-05-09 13:37:00,43.1,32.5,30.21,West,269,2.0,2.0,66,0.17,,OVC,0.58,VWS V13.01,2013-05-09 19:37:00,
2013-05-09 13:42:00,42.7,32.2,30.21,North,360,2.0,3.0,66,0.17,,OVC,0.59,VWS V13.01,2013-05-09 19:42:00,
2013-05-09 13:47:00,42.4,32.2,30.22,North,360,0.0,0.0,67,0.15,,OVC,0.59,VWS V13.01,2013-05-09 19:47:00,
2013-05-09 13:54:00,42.8,32.2,30.21,North,360,0.0,0.0,66,0.13,,OVC,0.60,VWS V13.01,2013-05-09 19:54:00,
2013-05-09 13:59:00,43.3,31.2,30.21,North,355,0.0,0.0,62,0.12,,OVC,0.62,VWS V13.01,2013-05-09 19:59:00,
2013-05-09 14:04:00,43.7,32.3,30.21,North,349,0.0,0.0,64,0.12,,OVC,0.63,VWS V13.01,2013-05-09 20:04:00,
2013-05-09 14:10:00,44.4,33.0,30.21,North,350,0.0,1.0,64,0.12,,OVC,0.64,VWS V13.01,2013-05-09 20:10:00,
2013-05-09 14:15:00,44.5,31.5,30.21,NNE,16,0.0,5.0,60,0.13,,OVC,0.66,VWS V13.01,2013-05-09 20:15:00,
2013-05-09 14:20:00,44.7,32.5,30.21,NNE,21,0.0,3.0,62,0.12,,OVC,0.66,VWS V13.01,2013-05-09 20:20:00,
2013-05-09 14:25:00,45.0,32.0,30.21,NNE,21,0.0,0.0,60,0.13,,OVC,0.68,VWS V13.01,2013-05-09 20:25:00,
2013-05-09 14:30:00,45.6,30.8,30.21,NNE,30,0.0,1.0,56,0.12,,OVC,0.69,VWS V13.01,2013-05-09 20:30:00,
2013-05-09 14:35:00,45.3,31.4,30.21,NNE,29,0.0,0.0,58,0.13,,OVC,0.70,VWS V13.01,2013-05-09 20:35:00,
2013-05-09 14:40:00,46.0,34.9,30.20,NNE,29,0.0,0.0,65,0.13,,OVC,0.71,VWS V13.01,2013-05-09 20:40:00,
2013-05-09 14:45:00,45.9,33.2,30.20,NNE,29,0.0,1.0,61,0.13,,OVC,0.72,VWS V13.01,2013-05-09 20:45:00,
2013-05-09 14:50:00,45.7,34.2,30.20,NNE,30,0.0,0.0,64,0.12,,OVC,0.72,VWS V13.01,2013-05-09 20:50:00,
2013-05-09 14:55:00,45.4,32.3,30.20,NNE,32,0.0,1.0,60,0.13,,OVC,0.73,VWS V13.01,2013-05-09 20:55:00,
2013-05-09 15:01:00,45.5,32.8,30.21,NNE,32,3.0,6.0,61,0.12,,OVC,0.74,VWS V13.01,2013-05-09 21:01:00,
2013-05-09 15:06:00,42.4,31.9,30.21,NW,305,4.0,12.0,66,0.11,,OVC,0.74,VWS V13.01,2013-05-09 21:06:00,
2013-05-09 15:11:00,39.7,31.4,30.21,WSW,249,1.0,3.0,72,0.11,,OVC,0.75,VWS V13.01,2013-05-09 21:11:00,
2013-05-09 15:16:00,38.8,31.6,30.21,WNW,296,6.0,6.0,75,0.09,,OVC,0.75,VWS V13.01,2013-05-09 21:16:00,
2013-05-09 16:19:00,40.3,32.7,30.23,NW,307,3.0,6.0,74,0.03,,OVC,0.78,VWS V13.01,2013-05-09 22:19:00,
2013-05-09 16:24:00,39.8,32.5,30.23,East,90,0.0,1.0,75,0.03,,OVC,0.78,VWS V13.01,2013-05-09 22:24:00,
2013-05-09 16:29:00,39.3,32.4,30.23,East,88,0.0,0.0,76,0.03,,OVC,0.78,VWS V13.01,2013-05-09 22:29:00,
2013-05-09 16:34:00,38.9,32.3,30.23,East,88,0.0,0.0,77,0.02,,OVC,0.78,VWS V13.01,2013-05-09 22:34:00,
2013-05-09 16:39:00,38.6,32.3,30.23,East,88,1.0,1.0,78,0.03,,OVC,0.79,VWS V13.01,2013-05-09 22:39:00,
2013-05-09 16:51:00,38.3,32.4,30.23,East,89,0.0,0.0,79,0.03,,OVC,0.79,VWS V13.01,2013-05-09 22:51:00,
2013-05-09 16:56:00,38.2,32.3,30.24,East,91,0.0,0.0,79,0.02,,OVC,0.79,VWS V13.01,2013-05-09 22:56:00,
2013-05-09 17:01:00,38.6,32.7,30.23,East,90,0.0,0.0,79,0.02,,OVC,0.79,VWS V13.01,2013-05-09 23:01:00,
2013-05-09 17:06:00,38.9,32.6,30.24,East,90,0.0,0.0,78,0.03,,OVC,0.80,VWS V13.01,2013-05-09 23:06:00,
2013-05-09 17:11:00,39.0,32.4,30.23,East,91,0.0,0.0,77,0.02,,OVC,0.80,VWS V13.01,2013-05-09 23:11:00,
2013-05-09 17:16:00,39.5,32.9,30.23,East,92,2.0,2.0,77,0.02,,OVC,0.80,VWS V13.01,2013-05-09 23:16:00,
2013-05-09 17:21:00,39.8,32.9,30.23,East,92,0.0,1.0,76,0.02,,OVC,0.80,VWS V13.01,2013-05-09 23:21:00,
2013-05-09 17:26:00,40.8,33.2,30.23,East,91,1.0,1.0,74,0.02,,OVC,0.80,VWS V13.01,2013-05-09 23:26:00,
2013-05-09 17:31:00,42.1,33.7,30.23,East,91,0.0,0.0,72,0.02,,OVC,0.80,VWS V13.01,2013-05-09 23:31:00,
2013-05-09 17:36:00,43.0,33.5,30.23,East,91,0.0,0.0,69,0.02,,OVC,0.80,VWS V13.01,2013-05-09 23:36:00,
2013-05-09 17:41:00,43.6,33.4,30.22,East,91,0.0,0.0,67,0.01,,OVC,0.80,VWS V13.01,2013-05-09 23:41:00,
2013-05-09 17:46:00,44.4,33.8,30.22,East,91,0.0,0.0,66,0.01,,OVC,0.80,VWS V13.01,2013-05-09 23:46:00,
2013-05-09 17:51:00,45.5,34.0,30.22,East,91,0.0,0.0,64,0.01,,OVC,0.80,VWS V13.01,2013-05-09 23:51:00,
2013-05-09 17:56:00,47.0,33.8,30.21,East,91,0.0,0.0,60,0.01,,OVC,0.80,VWS V13.01,2013-05-09 23:56:00,
2013-05-09 18:01:00,48.7,32.8,30.21,East,91,0.0,0.0,54,0.01,,OVC,0.80,VWS V13.01,2013-05-10 00:01:00,
2013-05-09 18:06:00,48.8,33.4,30.21,East,91,0.0,0.0,55,0.01,,OVC,0.81,VWS V13.01,2013-05-10 00:06:00,
2013-05-09 18:11:00,48.1,34.0,30.21,East,91,0.0,0.0,58,0.01,,OVC,0.81,VWS V13.01,2013-05-10 00:11:00,
2013-05-09 18:16:00,48.5,35.3,30.21,East,92,0.0,0.0,60,0.01,,OVC,0.81,VWS V13.01,2013-05-10 00:16:00,
2013-05-09 18:21:00,49.5,35.3,30.20,East,91,2.0,5.0,58,0.01,,OVC,0.81,VWS V13.01,2013-05-10 00:21:00,
2013-05-09 18:26:00,49.9,35.3,30.20,East,92,1.0,3.0,57,0.01,,OVC,0.81,VWS V13.01,2013-05-10 00:26:00,
2013-05-09 18:31:00,49.3,34.7,30.20,East,92,0.0,0.0,57,0.01,,OVC,0.81,VWS V13.01,2013-05-10 00:31:00,
2013-05-09 18:36:00,49.3,35.2,30.20,East,92,0.0,0.0,58,0.01,,OVC,0.81,VWS V13.01,2013-05-10 00:36:00,
2013-05-09 18:41:00,49.1,34.5,30.20,East,91,0.0,0.0,57,0.01,,OVC,0.81,VWS V13.01,2013-05-10 00:41:00,
2013-05-09 18:47:00,48.3,34.2,30.20,East,91,0.0,1.0,58,0.01,,OVC,0.81,VWS V13.01,2013-05-10 00:47:00,
2013-05-09 18:52:00,48.0,34.8,30.19,East,91,0.0,0.0,60,0.01,,OVC,0.81,VWS V13.01,2013-05-10 00:52:00,
2013-05-09 18:57:00,48.3,35.5,30.19,East,92,0.0,0.0,61,0.01,,OVC,0.81,VWS V13.01,2013-05-10 00:57:00,
2013-05-09 19:05:00,48.8,35.1,30.20,East,92,0.0,0.0,59,0.00,,OVC,0.81,VWS V13.01,2013-05-10 01:05:00,
2013-05-09 19:10:00,48.3,34.7,30.20,East,92,0.0,0.0,59,0.00,,OVC,0.81,VWS V13.01,2013-05-10 01:10:00,
2013-05-09 19:16:00,48.1,34.5,30.20,East,92,0.0,0.0,59,0.00,,OVC,0.81,VWS V13.01,2013-05-10 01:16:00,
2013-05-09 19:21:00,47.5,34.3,30.20,East,92,0.0,0.0,60,0.00,,OVC,0.81,VWS V13.01,2013-05-10 01:21:00,
2013-05-09 19:26:00,46.8,34.1,30.20,East,92,0.0,0.0,61,0.00,,OVC,0.81,VWS V13.01,2013-05-10 01:26:00,
2013-05-09 19:31:00,46.0,33.7,30.20,East,92,0.0,0.0,62,0.00,,OVC,0.81,VWS V13.01,2013-05-10 01:31:00,
2013-05-09 19:40:00,44.4,32.6,30.20,East,91,0.0,0.0,63,0.00,,OVC,0.81,VWS V13.01,2013-05-10 01:40:00,
2013-05-09 19:49:00,43.2,32.6,30.21,East,92,0.0,0.0,66,0.00,,OVC,0.81,VWS V13.01,2013-05-10 01:49:00,